sensor_id;sensor_type;location;lat;lon;timestamp;pressure;altitude;pressure_sealevel;temperature;humidity
40838;BME280;29632;49.168;9.848;2023-05-31T00:00:00;97237.47;;;20.87;28.14
40838;BME280;29632;49.168;9.848;2023-05-31T00:02:25;97233.59;;;20.83;28.16
40838;BME280;29632;49.168;9.848;2023-05-31T00:04:51;97248.03;;;20.81;27.97
40838;BME280;29632;49.168;9.848;2023-05-31T00:07:17;97242.31;;;20.77;28.15
40838;BME280;29632;49.168;9.848;2023-05-31T00:09:43;97242.69;;;20.74;28.22
40838;BME280;29632;49.168;9.848;2023-05-31T00:12:08;97239.44;;;20.72;28.12
40838;BME280;29632;49.168;9.848;2023-05-31T00:14:34;97236.97;;;20.70;28.23
40838;BME280;29632;49.168;9.848;2023-05-31T00:17:00;97239.22;;;20.67;28.25
40838;BME280;29632;49.168;9.848;2023-05-31T00:19:25;97235.94;;;20.65;28.31
40838;BME280;29632;49.168;9.848;2023-05-31T00:21:51;97235.34;;;20.63;28.35
40838;BME280;29632;49.168;9.848;2023-05-31T00:24:17;97234.69;;;20.61;28.26
40838;BME280;29632;49.168;9.848;2023-05-31T00:26:42;97233.03;;;20.60;28.13
40838;BME280;29632;49.168;9.848;2023-05-31T00:29:08;97227.31;;;20.56;28.41
40838;BME280;29632;49.168;9.848;2023-05-31T00:31:34;97227.72;;;20.53;28.26
40838;BME280;29632;49.168;9.848;2023-05-31T00:34:00;97235.03;;;20.51;28.52
40838;BME280;29632;49.168;9.848;2023-05-31T00:36:25;97228.50;;;20.47;28.52
40838;BME280;29632;49.168;9.848;2023-05-31T00:38:51;97230.72;;;20.43;28.38
40838;BME280;29632;49.168;9.848;2023-05-31T00:41:17;97229.47;;;20.39;28.56
40838;BME280;29632;49.168;9.848;2023-05-31T00:43:42;97226.22;;;20.37;28.70
40838;BME280;29632;49.168;9.848;2023-05-31T00:46:11;97221.34;;;20.34;28.51
40838;BME280;29632;49.168;9.848;2023-05-31T00:48:37;97232.28;;;20.31;28.74
40838;BME280;29632;49.168;9.848;2023-05-31T00:51:05;97231.88;;;20.27;28.61
40838;BME280;29632;49.168;9.848;2023-05-31T00:53:31;97226.97;;;20.24;28.63
40838;BME280;29632;49.168;9.848;2023-05-31T00:55:56;97220.44;;;20.20;28.76
40838;BME280;29632;49.168;9.848;2023-05-31T00:58:24;97225.06;;;20.18;28.67
40838;BME280;29632;49.168;9.848;2023-05-31T01:00:49;97223.66;;;20.15;28.65
40838;BME280;29632;49.168;9.848;2023-05-31T01:03:15;97219.38;;;20.14;28.68
40838;BME280;29632;49.168;9.848;2023-05-31T01:05:41;97216.09;;;20.12;28.82
40838;BME280;29632;49.168;9.848;2023-05-31T01:08:09;97208.34;;;20.11;28.72
40838;BME280;29632;49.168;9.848;2023-05-31T01:10:35;97213.03;;;20.09;28.82
40838;BME280;29632;49.168;9.848;2023-05-31T01:15:55;97209.97;;;20.05;28.67
40838;BME280;29632;49.168;9.848;2023-05-31T01:18:31;97207.06;;;20.00;28.91
40838;BME280;29632;49.168;9.848;2023-05-31T01:20:59;97213.38;;;19.99;28.90
40838;BME280;29632;49.168;9.848;2023-05-31T01:29:09;97206.34;;;19.85;29.01
40838;BME280;29632;49.168;9.848;2023-05-31T01:31:36;97203.91;;;19.83;28.98
40838;BME280;29632;49.168;9.848;2023-05-31T01:34:03;97210.22;;;19.82;28.96
40838;BME280;29632;49.168;9.848;2023-05-31T01:36:30;97210.41;;;19.80;28.90
40838;BME280;29632;49.168;9.848;2023-05-31T01:38:56;97206.94;;;19.80;29.01
40838;BME280;29632;49.168;9.848;2023-05-31T01:41:24;97214.22;;;19.78;29.15
40838;BME280;29632;49.168;9.848;2023-05-31T01:43:51;97215.44;;;19.75;28.83
40838;BME280;29632;49.168;9.848;2023-05-31T01:46:17;97214.97;;;19.72;29.13
40838;BME280;29632;49.168;9.848;2023-05-31T01:48:44;97211.91;;;19.68;29.08
40838;BME280;29632;49.168;9.848;2023-05-31T01:51:11;97209.25;;;19.68;28.80
40838;BME280;29632;49.168;9.848;2023-05-31T01:53:42;97209.44;;;19.67;29.08
40838;BME280;29632;49.168;9.848;2023-05-31T01:56:08;97214.91;;;19.65;29.11
40838;BME280;29632;49.168;9.848;2023-05-31T01:58:39;97213.31;;;19.64;29.15
40838;BME280;29632;49.168;9.848;2023-05-31T02:01:09;97214.28;;;19.63;29.09
40838;BME280;29632;49.168;9.848;2023-05-31T02:03:37;97213.69;;;19.61;28.88
40838;BME280;29632;49.168;9.848;2023-05-31T02:06:03;97222.41;;;19.61;29.05
40838;BME280;29632;49.168;9.848;2023-05-31T02:08:29;97216.50;;;19.59;28.90
40838;BME280;29632;49.168;9.848;2023-05-31T02:10:55;97206.31;;;19.56;28.97
40838;BME280;29632;49.168;9.848;2023-05-31T02:13:23;97208.16;;;19.56;28.98
40838;BME280;29632;49.168;9.848;2023-05-31T02:15:51;97217.06;;;19.55;29.20
40838;BME280;29632;49.168;9.848;2023-05-31T02:18:17;97220.72;;;19.54;29.34
40838;BME280;29632;49.168;9.848;2023-05-31T02:20:43;97211.97;;;19.53;29.07
40838;BME280;29632;49.168;9.848;2023-05-31T02:23:09;97211.97;;;19.53;29.09
40838;BME280;29632;49.168;9.848;2023-05-31T02:25:35;97214.16;;;19.50;29.02
40838;BME280;29632;49.168;9.848;2023-05-31T02:28:00;97210.09;;;19.47;29.19
40838;BME280;29632;49.168;9.848;2023-05-31T02:30:26;97204.38;;;19.43;29.36
40838;BME280;29632;49.168;9.848;2023-05-31T02:32:53;97205.56;;;19.41;29.44
40838;BME280;29632;49.168;9.848;2023-05-31T02:35:19;97214.69;;;19.38;29.17
40838;BME280;29632;49.168;9.848;2023-05-31T02:37:45;97214.88;;;19.37;29.35
40838;BME280;29632;49.168;9.848;2023-05-31T02:40:12;97208.97;;;19.35;29.43
40838;BME280;29632;49.168;9.848;2023-05-31T02:42:40;97214.81;;;19.30;29.42
40838;BME280;29632;49.168;9.848;2023-05-31T02:45:06;97215.00;;;19.29;29.49
40838;BME280;29632;49.168;9.848;2023-05-31T02:47:32;97209.28;;;19.25;29.35
40838;BME280;29632;49.168;9.848;2023-05-31T02:49:58;97211.28;;;19.23;29.74
40838;BME280;29632;49.168;9.848;2023-05-31T02:52:25;97206.38;;;19.20;29.39
40838;BME280;29632;49.168;9.848;2023-05-31T02:54:51;97207.41;;;19.19;29.39
40838;BME280;29632;49.168;9.848;2023-05-31T02:57:18;97205.75;;;19.18;29.74
40838;BME280;29632;49.168;9.848;2023-05-31T02:59:44;97207.78;;;19.16;29.57
40838;BME280;29632;49.168;9.848;2023-05-31T03:02:10;97202.88;;;19.13;29.65
40838;BME280;29632;49.168;9.848;2023-05-31T03:04:36;97200.41;;;19.11;29.55
40838;BME280;29632;49.168;9.848;2023-05-31T03:07:01;97208.50;;;19.10;29.73
40838;BME280;29632;49.168;9.848;2023-05-31T03:09:27;97201.63;;;19.09;29.70
40838;BME280;29632;49.168;9.848;2023-05-31T03:11:53;97213.16;;;19.08;29.77
40838;BME280;29632;49.168;9.848;2023-05-31T03:14:18;97205.44;;;19.06;29.70
40838;BME280;29632;49.168;9.848;2023-05-31T03:16:45;97217.81;;;19.05;29.61
40838;BME280;29632;49.168;9.848;2023-05-31T03:19:10;97216.00;;;19.06;29.62
40838;BME280;29632;49.168;9.848;2023-05-31T03:21:38;97212.53;;;19.05;29.66
40838;BME280;29632;49.168;9.848;2023-05-31T03:24:04;97202.78;;;19.06;29.69
40838;BME280;29632;49.168;9.848;2023-05-31T03:26:30;97205.44;;;19.06;29.62
40838;BME280;29632;49.168;9.848;2023-05-31T03:28:56;97203.81;;;19.05;29.59
40838;BME280;29632;49.168;9.848;2023-05-31T03:31:22;97210.88;;;19.04;29.56
40838;BME280;29632;49.168;9.848;2023-05-31T03:33:47;97212.72;;;19.04;29.66
40838;BME280;29632;49.168;9.848;2023-05-31T03:36:13;97206.63;;;19.03;29.52
40838;BME280;29632;49.168;9.848;2023-05-31T03:38:39;97218.00;;;19.04;29.65
40838;BME280;29632;49.168;9.848;2023-05-31T03:41:04;97209.28;;;19.03;29.62
40838;BME280;29632;49.168;9.848;2023-05-31T03:43:30;97214.75;;;19.02;29.62
40838;BME280;29632;49.168;9.848;2023-05-31T03:45:56;97215.72;;;19.01;29.84
40838;BME280;29632;49.168;9.848;2023-05-31T03:48:27;97211.47;;;19.00;29.73
40838;BME280;29632;49.168;9.848;2023-05-31T03:50:53;97212.47;;;18.99;29.53
40838;BME280;29632;49.168;9.848;2023-05-31T03:53:18;97216.13;;;18.98;29.59
40838;BME280;29632;49.168;9.848;2023-05-31T03:55:44;97208.22;;;18.98;29.75
40838;BME280;29632;49.168;9.848;2023-05-31T03:58:10;97213.66;;;18.96;29.63
40838;BME280;29632;49.168;9.848;2023-05-31T04:00:36;97214.66;;;18.95;29.65
40838;BME280;29632;49.168;9.848;2023-05-31T04:03:02;97217.31;;;18.95;29.66
40838;BME280;29632;49.168;9.848;2023-05-31T04:05:27;97220.75;;;18.96;29.68
40838;BME280;29632;49.168;9.848;2023-05-31T04:07:53;97219.75;;;18.97;29.88
40838;BME280;29632;49.168;9.848;2023-05-31T04:10:19;97219.94;;;18.95;29.60
40838;BME280;29632;49.168;9.848;2023-05-31T04:12:44;97223.19;;;18.97;29.61
40838;BME280;29632;49.168;9.848;2023-05-31T04:15:10;97231.13;;;18.97;29.68
40838;BME280;29632;49.168;9.848;2023-05-31T04:17:36;97229.31;;;18.98;29.87
40838;BME280;29632;49.168;9.848;2023-05-31T04:20:02;97234.59;;;18.98;29.64
40838;BME280;29632;49.168;9.848;2023-05-31T04:22:30;97238.84;;;18.99;29.91
40838;BME280;29632;49.168;9.848;2023-05-31T04:24:56;97237.06;;;18.99;29.73
40838;BME280;29632;49.168;9.848;2023-05-31T04:27:22;97236.03;;;19.00;29.59
40838;BME280;29632;49.168;9.848;2023-05-31T04:29:51;97237.88;;;19.00;29.75
40838;BME280;29632;49.168;9.848;2023-05-31T04:32:17;97240.50;;;19.00;29.60
40838;BME280;29632;49.168;9.848;2023-05-31T04:34:42;97241.31;;;19.00;29.64
40838;BME280;29632;49.168;9.848;2023-05-31T04:37:10;97244.75;;;19.01;29.66
40838;BME280;29632;49.168;9.848;2023-05-31T04:39:36;97244.59;;;19.02;29.74
40838;BME280;29632;49.168;9.848;2023-05-31T04:42:02;97241.75;;;19.04;29.76
40838;BME280;29632;49.168;9.848;2023-05-31T04:44:28;97243.41;;;19.05;29.63
40838;BME280;29632;49.168;9.848;2023-05-31T04:46:53;97247.66;;;19.06;29.68
40838;BME280;29632;49.168;9.848;2023-05-31T04:49:19;97245.88;;;19.07;29.59
40838;BME280;29632;49.168;9.848;2023-05-31T04:51:45;97248.31;;;19.08;29.89
40838;BME280;29632;49.168;9.848;2023-05-31T04:54:10;97241.22;;;19.09;29.75
40838;BME280;29632;49.168;9.848;2023-05-31T04:56:36;97248.94;;;19.10;29.81
40838;BME280;29632;49.168;9.848;2023-05-31T04:59:02;97249.38;;;19.14;29.97
40838;BME280;29632;49.168;9.848;2023-05-31T05:01:28;97245.53;;;19.16;29.76
40838;BME280;29632;49.168;9.848;2023-05-31T05:03:53;97249.03;;;19.17;29.92
40838;BME280;29632;49.168;9.848;2023-05-31T05:06:19;97252.09;;;19.20;29.70
40838;BME280;29632;49.168;9.848;2023-05-31T05:08:46;97251.72;;;19.23;29.72
40838;BME280;29632;49.168;9.848;2023-05-31T05:11:12;97260.06;;;19.27;29.59
40838;BME280;29632;49.168;9.848;2023-05-31T05:13:37;97261.34;;;19.31;29.86
40838;BME280;29632;49.168;9.848;2023-05-31T05:16:03;97260.94;;;19.34;29.71
40838;BME280;29632;49.168;9.848;2023-05-31T05:18:30;97263.22;;;19.37;29.83
40838;BME280;29632;49.168;9.848;2023-05-31T05:20:56;97263.47;;;19.42;29.89
40838;BME280;29632;49.168;9.848;2023-05-31T05:23:25;97261.28;;;19.46;29.83
40838;BME280;29632;49.168;9.848;2023-05-31T05:25:51;97258.09;;;19.51;29.73
40838;BME280;29632;49.168;9.848;2023-05-31T05:28:16;97259.34;;;19.55;29.75
40838;BME280;29632;49.168;9.848;2023-05-31T05:30:42;97263.03;;;19.60;29.88
40838;BME280;29632;49.168;9.848;2023-05-31T05:33:09;97265.31;;;19.63;29.81
40838;BME280;29632;49.168;9.848;2023-05-31T05:35:35;97256.81;;;19.68;29.78
40838;BME280;29632;49.168;9.848;2023-05-31T05:38:00;97264.19;;;19.73;29.85
40838;BME280;29632;49.168;9.848;2023-05-31T05:40:26;97269.94;;;19.76;29.82
40838;BME280;29632;49.168;9.848;2023-05-31T05:42:53;97271.81;;;19.83;29.78
40838;BME280;29632;49.168;9.848;2023-05-31T05:45:19;97273.03;;;19.87;29.70
40838;BME280;29632;49.168;9.848;2023-05-31T05:47:44;97275.13;;;19.91;29.68
40838;BME280;29632;49.168;9.848;2023-05-31T05:50:11;97273.53;;;19.97;29.70
40838;BME280;29632;49.168;9.848;2023-05-31T05:52:37;97277.44;;;20.01;29.71
40838;BME280;29632;49.168;9.848;2023-05-31T05:55:04;97278.50;;;20.07;29.75
40838;BME280;29632;49.168;9.848;2023-05-31T05:57:30;97276.28;;;20.10;29.79
40838;BME280;29632;49.168;9.848;2023-05-31T05:59:56;97272.91;;;20.16;29.67
40838;BME280;29632;49.168;9.848;2023-05-31T06:02:22;97277.41;;;20.23;29.82
40838;BME280;29632;49.168;9.848;2023-05-31T06:04:48;97277.63;;;20.28;29.79
40838;BME280;29632;49.168;9.848;2023-05-31T06:07:18;97276.03;;;20.33;29.65
40838;BME280;29632;49.168;9.848;2023-05-31T06:09:45;97276.88;;;20.41;29.64
40838;BME280;29632;49.168;9.848;2023-05-31T06:12:11;97277.13;;;20.46;29.74
40838;BME280;29632;49.168;9.848;2023-05-31T06:14:37;97275.56;;;20.51;29.81
40838;BME280;29632;49.168;9.848;2023-05-31T06:17:02;97277.59;;;20.56;29.81
40838;BME280;29632;49.168;9.848;2023-05-31T06:19:28;97282.31;;;20.61;29.76
40838;BME280;29632;49.168;9.848;2023-05-31T06:21:54;97280.75;;;20.66;29.72
40838;BME280;29632;49.168;9.848;2023-05-31T06:24:23;97285.25;;;20.72;29.58
40838;BME280;29632;49.168;9.848;2023-05-31T06:26:49;97285.28;;;20.79;29.81
40838;BME280;29632;49.168;9.848;2023-05-31T06:29:14;97280.19;;;20.84;29.74
40838;BME280;29632;49.168;9.848;2023-05-31T06:31:40;97278.41;;;20.91;29.65
40838;BME280;29632;49.168;9.848;2023-05-31T06:34:05;97278.44;;;20.98;29.59
40838;BME280;29632;49.168;9.848;2023-05-31T06:36:31;97281.91;;;21.05;29.59
40838;BME280;29632;49.168;9.848;2023-05-31T06:38:57;97272.16;;;21.12;29.75
40838;BME280;29632;49.168;9.848;2023-05-31T06:41:24;97274.63;;;21.21;29.81
40838;BME280;29632;49.168;9.848;2023-05-31T06:43:50;97270.16;;;21.28;29.61
40838;BME280;29632;49.168;9.848;2023-05-31T06:46:16;97273.44;;;21.37;29.71
40838;BME280;29632;49.168;9.848;2023-05-31T06:48:41;97269.81;;;21.44;29.75
40838;BME280;29632;49.168;9.848;2023-05-31T06:51:07;97269.88;;;21.51;29.75
40838;BME280;29632;49.168;9.848;2023-05-31T06:53:33;97274.16;;;21.59;29.62
40838;BME280;29632;49.168;9.848;2023-05-31T06:55:58;97267.00;;;21.66;29.56
40838;BME280;29632;49.168;9.848;2023-05-31T06:58:28;97264.38;;;21.73;29.70
40838;BME280;29632;49.168;9.848;2023-05-31T07:00:55;97261.72;;;21.79;29.77
40838;BME280;29632;49.168;9.848;2023-05-31T07:03:21;97267.03;;;21.86;29.70
40838;BME280;29632;49.168;9.848;2023-05-31T07:05:46;97266.00;;;21.94;29.67
40838;BME280;29632;49.168;9.848;2023-05-31T07:08:12;97260.09;;;21.98;29.58
40838;BME280;29632;49.168;9.848;2023-05-31T07:10:41;97263.56;;;22.05;29.42
40838;BME280;29632;49.168;9.848;2023-05-31T07:13:06;97258.47;;;22.11;29.72
40838;BME280;29632;49.168;9.848;2023-05-31T07:15:33;97262.53;;;22.13;29.57
40838;BME280;29632;49.168;9.848;2023-05-31T07:17:59;97263.97;;;22.16;29.71
40838;BME280;29632;49.168;9.848;2023-05-31T07:20:24;97250.91;;;22.21;29.61
40838;BME280;29632;49.168;9.848;2023-05-31T07:22:50;97251.53;;;22.30;29.50
40838;BME280;29632;49.168;9.848;2023-05-31T07:25:16;97245.97;;;22.38;29.61
40838;BME280;29632;49.168;9.848;2023-05-31T07:27:42;97253.13;;;22.44;29.39
40838;BME280;29632;49.168;9.848;2023-05-31T07:30:08;97250.47;;;22.51;29.50
40838;BME280;29632;49.168;9.848;2023-05-31T07:32:34;97248.81;;;22.56;29.35
40838;BME280;29632;49.168;9.848;2023-05-31T07:35:00;97252.03;;;22.65;29.46
40838;BME280;29632;49.168;9.848;2023-05-31T07:37:25;97249.38;;;22.72;29.33
40838;BME280;29632;49.168;9.848;2023-05-31T07:39:51;97245.44;;;22.81;29.28
40838;BME280;29632;49.168;9.848;2023-05-31T07:42:17;97247.63;;;22.91;29.16
40838;BME280;29632;49.168;9.848;2023-05-31T07:44:42;97238.84;;;22.97;29.25
40838;BME280;29632;49.168;9.848;2023-05-31T07:47:08;97240.41;;;23.05;29.31
40838;BME280;29632;49.168;9.848;2023-05-31T07:49:34;97238.59;;;23.12;29.18
40838;BME280;29632;49.168;9.848;2023-05-31T07:51:59;97235.47;;;23.22;29.26
40838;BME280;29632;49.168;9.848;2023-05-31T07:54:25;97234.19;;;23.31;29.25
40838;BME280;29632;49.168;9.848;2023-05-31T07:56:51;97237.38;;;23.40;28.96
40838;BME280;29632;49.168;9.848;2023-05-31T07:59:16;97231.59;;;23.49;28.97
40838;BME280;29632;49.168;9.848;2023-05-31T08:01:43;97226.84;;;23.58;29.04
40838;BME280;29632;49.168;9.848;2023-05-31T08:04:10;97233.72;;;23.66;29.30
40838;BME280;29632;49.168;9.848;2023-05-31T08:06:35;97225.28;;;23.75;28.98
40838;BME280;29632;49.168;9.848;2023-05-31T08:09:04;97229.53;;;23.83;28.83
40838;BME280;29632;49.168;9.848;2023-05-31T08:11:30;97231.72;;;23.93;28.90
40838;BME280;29632;49.168;9.848;2023-05-31T08:13:56;97229.38;;;24.03;29.04
40838;BME280;29632;49.168;9.848;2023-05-31T08:16:22;97228.03;;;24.12;28.61
40838;BME280;29632;49.168;9.848;2023-05-31T08:18:47;97227.78;;;24.21;28.94
40838;BME280;29632;49.168;9.848;2023-05-31T08:21:14;97219.50;;;24.29;28.77
40838;BME280;29632;49.168;9.848;2023-05-31T08:23:40;97230.69;;;24.38;29.05
40838;BME280;29632;49.168;9.848;2023-05-31T08:26:06;97225.25;;;24.44;28.91
40838;BME280;29632;49.168;9.848;2023-05-31T08:28:32;97227.44;;;24.54;28.99
40838;BME280;29632;49.168;9.848;2023-05-31T08:30:57;97215.88;;;24.60;28.72
40838;BME280;29632;49.168;9.848;2023-05-31T08:33:27;97224.38;;;24.69;28.56
40838;BME280;29632;49.168;9.848;2023-05-31T08:35:54;97220.84;;;24.75;28.51
40838;BME280;29632;49.168;9.848;2023-05-31T08:38:27;97225.72;;;24.78;29.03
40838;BME280;29632;49.168;9.848;2023-05-31T08:40:54;97214.16;;;24.84;28.61
40838;BME280;29632;49.168;9.848;2023-05-31T08:43:22;97213.66;;;24.94;28.41
40838;BME280;29632;49.168;9.848;2023-05-31T08:45:50;97207.75;;;25.04;28.52
40838;BME280;29632;49.168;9.848;2023-05-31T08:48:54;97207.00;;;25.15;28.71
40838;BME280;29632;49.168;9.848;2023-05-31T08:51:23;97207.50;;;25.24;28.64
40838;BME280;29632;49.168;9.848;2023-05-31T08:53:50;97203.94;;;25.30;28.59
40838;BME280;29632;49.168;9.848;2023-05-31T08:56:16;97209.16;;;25.37;28.48
40838;BME280;29632;49.168;9.848;2023-05-31T08:58:43;97207.81;;;25.46;28.62
40838;BME280;29632;49.168;9.848;2023-05-31T09:01:09;97213.63;;;25.55;28.53
40838;BME280;29632;49.168;9.848;2023-05-31T09:03:36;97217.81;;;25.62;28.72
40838;BME280;29632;49.168;9.848;2023-05-31T09:06:03;97205.19;;;25.70;28.52
40838;BME280;29632;49.168;9.848;2023-05-31T09:08:29;97206.44;;;25.79;28.34
40838;BME280;29632;49.168;9.848;2023-05-31T09:11:00;97210.66;;;25.87;28.32
40838;BME280;29632;49.168;9.848;2023-05-31T09:13:26;97205.44;;;25.92;28.50
40838;BME280;29632;49.168;9.848;2023-05-31T09:15:52;97205.22;;;25.93;28.30
40838;BME280;29632;49.168;9.848;2023-05-31T09:18:21;97208.03;;;25.98;28.28
40838;BME280;29632;49.168;9.848;2023-05-31T09:20:48;97198.72;;;26.01;28.19
40838;BME280;29632;49.168;9.848;2023-05-31T09:23:16;97207.06;;;26.05;28.45
40838;BME280;29632;49.168;9.848;2023-05-31T09:25:50;97205.69;;;26.02;28.02
40838;BME280;29632;49.168;9.848;2023-05-31T09:28:20;97200.13;;;26.04;28.28
40838;BME280;29632;49.168;9.848;2023-05-31T09:31:06;97191.63;;;26.07;28.20
40838;BME280;29632;49.168;9.848;2023-05-31T09:33:37;97196.75;;;26.08;28.30
40838;BME280;29632;49.168;9.848;2023-05-31T09:36:04;97197.66;;;26.14;28.33
40838;BME280;29632;49.168;9.848;2023-05-31T09:38:34;97185.84;;;26.22;28.33
40838;BME280;29632;49.168;9.848;2023-05-31T09:41:18;97191.06;;;26.28;27.95
40838;BME280;29632;49.168;9.848;2023-05-31T09:43:46;97189.88;;;26.36;28.01
40838;BME280;29632;49.168;9.848;2023-05-31T09:46:14;97194.84;;;26.44;27.76
40838;BME280;29632;49.168;9.848;2023-05-31T09:48:40;97194.25;;;26.54;27.94
40838;BME280;29632;49.168;9.848;2023-05-31T09:51:11;97188.75;;;26.61;27.86
40838;BME280;29632;49.168;9.848;2023-05-31T09:53:44;97187.03;;;26.66;27.85
40838;BME280;29632;49.168;9.848;2023-05-31T09:56:18;97184.78;;;26.75;27.83
40838;BME280;29632;49.168;9.848;2023-05-31T09:58:44;97180.72;;;26.84;27.74
40838;BME280;29632;49.168;9.848;2023-05-31T10:01:10;97176.03;;;26.91;27.67
40838;BME280;29632;49.168;9.848;2023-05-31T10:03:37;97185.53;;;26.99;27.67
40838;BME280;29632;49.168;9.848;2023-05-31T10:06:03;97183.28;;;27.08;27.58
40838;BME280;29632;49.168;9.848;2023-05-31T10:08:29;97184.50;;;27.17;27.61
40838;BME280;29632;49.168;9.848;2023-05-31T10:10:59;97192.72;;;27.27;27.74
40838;BME280;29632;49.168;9.848;2023-05-31T10:13:28;97190.22;;;27.38;27.58
40838;BME280;29632;49.168;9.848;2023-05-31T10:15:56;97188.22;;;27.45;27.68
40838;BME280;29632;49.168;9.848;2023-05-31T10:18:27;97187.81;;;27.53;27.39
40838;BME280;29632;49.168;9.848;2023-05-31T10:21:17;97182.06;;;27.61;27.61
40838;BME280;29632;49.168;9.848;2023-05-31T10:24:02;97182.94;;;27.67;27.50
40838;BME280;29632;49.168;9.848;2023-05-31T10:26:44;97184.66;;;27.73;27.80
40838;BME280;29632;49.168;9.848;2023-05-31T10:31:41;97185.38;;;27.85;27.56
40838;BME280;29632;49.168;9.848;2023-05-31T10:34:22;97186.28;;;27.91;27.36
40838;BME280;29632;49.168;9.848;2023-05-31T10:36:52;97185.88;;;27.99;27.44
40838;BME280;29632;49.168;9.848;2023-05-31T10:45:26;97177.31;;;28.19;27.33
40838;BME280;29632;49.168;9.848;2023-05-31T10:50:57;97170.22;;;28.30;27.06
40838;BME280;29632;49.168;9.848;2023-05-31T10:53:28;97164.69;;;28.37;27.09
40838;BME280;29632;49.168;9.848;2023-05-31T10:56:12;97163.94;;;28.41;27.13
40838;BME280;29632;49.168;9.848;2023-05-31T10:58:40;97172.34;;;28.50;26.98
40838;BME280;29632;49.168;9.848;2023-05-31T11:01:10;97164.63;;;28.54;27.11
40838;BME280;29632;49.168;9.848;2023-05-31T11:03:50;97157.97;;;28.56;27.10
40838;BME280;29632;49.168;9.848;2023-05-31T11:06:18;97160.97;;;28.60;27.05
40838;BME280;29632;49.168;9.848;2023-05-31T11:09:01;97161.56;;;28.67;27.07
40838;BME280;29632;49.168;9.848;2023-05-31T11:16:22;97166.31;;;28.82;26.87
40838;BME280;29632;49.168;9.848;2023-05-31T11:18:47;97161.00;;;28.87;26.95
40838;BME280;29632;49.168;9.848;2023-05-31T11:21:48;97168.53;;;28.90;26.54
40838;BME280;29632;49.168;9.848;2023-05-31T11:27:00;97160.34;;;29.02;26.55
40838;BME280;29632;49.168;9.848;2023-05-31T11:29:55;97151.28;;;29.08;26.56
40838;BME280;29632;49.168;9.848;2023-05-31T11:35:02;97146.31;;;29.17;26.58
40838;BME280;29632;49.168;9.848;2023-05-31T11:37:35;97146.09;;;29.24;26.27
40838;BME280;29632;49.168;9.848;2023-05-31T11:40:09;97139.69;;;29.30;26.14
40838;BME280;29632;49.168;9.848;2023-05-31T11:42:36;97141.38;;;29.36;26.06
40838;BME280;29632;49.168;9.848;2023-05-31T11:45:10;97138.47;;;29.43;26.11
40838;BME280;29632;49.168;9.848;2023-05-31T11:50:14;97140.97;;;29.54;25.71
40838;BME280;29632;49.168;9.848;2023-05-31T11:52:44;97134.28;;;29.57;25.76
40838;BME280;29632;49.168;9.848;2023-05-31T11:55:10;97127.31;;;29.61;25.72
40838;BME280;29632;49.168;9.848;2023-05-31T11:57:41;97124.91;;;29.60;25.69
40838;BME280;29632;49.168;9.848;2023-05-31T12:00:08;97127.00;;;29.52;25.84
40838;BME280;29632;49.168;9.848;2023-05-31T12:02:36;97115.47;;;29.52;25.97
40838;BME280;29632;49.168;9.848;2023-05-31T12:05:03;97110.09;;;29.52;25.88
40838;BME280;29632;49.168;9.848;2023-05-31T12:07:30;97106.63;;;29.56;25.57
40838;BME280;29632;49.168;9.848;2023-05-31T12:09:55;97113.91;;;29.61;25.96
40838;BME280;29632;49.168;9.848;2023-05-31T12:12:21;97106.69;;;29.67;25.67
40838;BME280;29632;49.168;9.848;2023-05-31T12:14:50;97097.09;;;29.71;25.84
40838;BME280;29632;49.168;9.848;2023-05-31T12:17:16;97099.56;;;29.78;25.93
40838;BME280;29632;49.168;9.848;2023-05-31T12:19:42;97104.13;;;29.82;25.52
40838;BME280;29632;49.168;9.848;2023-05-31T12:22:08;97104.13;;;29.82;25.33
40838;BME280;29632;49.168;9.848;2023-05-31T12:24:36;97098.00;;;29.87;25.71
40838;BME280;29632;49.168;9.848;2023-05-31T12:27:02;97097.19;;;29.91;25.51
40838;BME280;29632;49.168;9.848;2023-05-31T12:29:29;97092.66;;;29.92;25.58
40838;BME280;29632;49.168;9.848;2023-05-31T12:32:05;97091.06;;;29.96;25.33
40838;BME280;29632;49.168;9.848;2023-05-31T12:34:35;97089.19;;;30.02;25.17
40838;BME280;29632;49.168;9.848;2023-05-31T12:37:05;97092.75;;;30.07;25.44
40838;BME280;29632;49.168;9.848;2023-05-31T12:39:32;97090.88;;;30.13;25.39
40838;BME280;29632;49.168;9.848;2023-05-31T12:41:59;97096.78;;;30.15;25.34
40838;BME280;29632;49.168;9.848;2023-05-31T12:44:26;97089.81;;;30.19;25.08
40838;BME280;29632;49.168;9.848;2023-05-31T12:46:52;97076.91;;;30.21;25.19
40838;BME280;29632;49.168;9.848;2023-05-31T12:49:25;97080.72;;;30.25;24.86
40838;BME280;29632;49.168;9.848;2023-05-31T12:52:06;97075.88;;;30.27;24.83
40838;BME280;29632;49.168;9.848;2023-05-31T12:57:02;97079.44;;;30.38;25.16
40838;BME280;29632;49.168;9.848;2023-05-31T12:59:30;97073.28;;;30.43;24.89
40838;BME280;29632;49.168;9.848;2023-05-31T13:02:00;97069.78;;;30.47;24.79
40838;BME280;29632;49.168;9.848;2023-05-31T13:04:26;97075.16;;;30.53;24.93
40838;BME280;29632;49.168;9.848;2023-05-31T13:06:53;97089.44;;;30.53;24.85
40838;BME280;29632;49.168;9.848;2023-05-31T13:09:19;97090.50;;;30.57;24.60
40838;BME280;29632;49.168;9.848;2023-05-31T13:11:45;97075.19;;;30.58;24.54
40838;BME280;29632;49.168;9.848;2023-05-31T13:14:14;97076.81;;;30.59;24.57
40838;BME280;29632;49.168;9.848;2023-05-31T13:16:40;97079.22;;;30.60;24.71
40838;BME280;29632;49.168;9.848;2023-05-31T13:19:06;97072.75;;;30.61;25.09
40838;BME280;29632;49.168;9.848;2023-05-31T13:21:33;97069.03;;;30.62;24.75
40838;BME280;29632;49.168;9.848;2023-05-31T13:24:01;97062.00;;;30.61;24.83
40838;BME280;29632;49.168;9.848;2023-05-31T13:26:27;97067.97;;;30.63;24.73
40838;BME280;29632;49.168;9.848;2023-05-31T13:28:54;97066.88;;;30.64;24.60
40838;BME280;29632;49.168;9.848;2023-05-31T13:31:20;97053.16;;;30.66;24.78
40838;BME280;29632;49.168;9.848;2023-05-31T13:33:46;97059.34;;;30.66;24.48
40838;BME280;29632;49.168;9.848;2023-05-31T13:36:15;97062.84;;;30.67;24.56